Terminal Aerodrome Forecast
Issued by NWS

Home | Current Version | Previous Version | Text Only | Print | Product List | Glossary On
Versions: 1 2 3 4 5 6 7 8 9 10 11 12 13 14 15 16
000
FTUS41 KBGM 261726
TAFELM
TAF
KELM 261726Z 2618/2718 36007G16KT P6SM OVC060
     FM262000 33010G20KT P6SM BKN060
     FM262300 VRB03KT P6SM SCT060
     FM270600 VRB03KT P6SM OVC050
     FM271000 27009KT P6SM OVC035
      TEMPO 2710/2714 -SHRASN OVC020
     FM271500 31010G18KT P6SM OVC040=

USA.gov is the U.S. government's official web portal to all federal, state and local government web resources and services.